createdAt,value
2023-03-26T00:00:59.299Z,950.88
2023-03-26T00:03:59.430Z,950.81
2023-03-26T00:06:58.414Z,950.83
2023-03-26T00:09:58.886Z,950.78
2023-03-26T00:12:58.943Z,950.76
2023-03-26T00:15:58.796Z,950.74
2023-03-26T00:18:59.581Z,950.66
2023-03-26T00:21:57.731Z,950.53
2023-03-26T00:24:59.031Z,950.46
2023-03-26T00:27:58.720Z,950.46
2023-03-26T00:30:58.411Z,950.51
2023-03-26T00:33:59.135Z,950.53
2023-03-26T00:36:58.873Z,950.49
2023-03-26T00:40:00.713Z,950.54
2023-03-26T00:42:59.138Z,950.54
2023-03-26T00:45:58.466Z,950.57
2023-03-26T00:48:58.345Z,950.53
2023-03-26T00:51:58.468Z,950.59
2023-03-26T00:54:59.431Z,950.53
2023-03-26T00:57:59.244Z,950.51
2023-03-26T01:00:58.913Z,950.54
2023-03-26T01:04:15.356Z,950.39
2023-03-26T01:06:58.388Z,950.49
2023-03-26T01:09:58.903Z,950.49
2023-03-26T01:12:58.469Z,950.46
2023-03-26T01:15:59.003Z,950.5
2023-03-26T01:18:59.116Z,950.39
2023-03-26T01:21:59.687Z,950.39
2023-03-26T01:24:59.146Z,950.26
2023-03-26T01:27:59.449Z,950.23
2023-03-26T01:30:59.102Z,950.16
2023-03-26T01:33:57.870Z,950.07
2023-03-26T01:36:59.811Z,950.12
2023-03-26T01:39:57.403Z,950.05
2023-03-26T01:42:58.785Z,950.0
2023-03-26T01:45:58.440Z,950.0
2023-03-26T01:48:58.126Z,949.9
2023-03-26T01:51:58.555Z,949.87
2023-03-26T01:54:58.951Z,949.93
2023-03-26T01:57:58.921Z,949.95
2023-03-26T02:00:58.359Z,949.92
2023-03-26T02:04:00.127Z,949.86
2023-03-26T02:06:59.261Z,949.8
2023-03-26T02:09:58.110Z,949.76
2023-03-26T02:12:58.256Z,949.77
2023-03-26T02:15:59.129Z,949.67
2023-03-26T02:18:58.503Z,949.6
2023-03-26T02:21:58.908Z,949.59
2023-03-26T02:24:58.188Z,949.57
2023-03-26T02:27:58.513Z,949.56
2023-03-26T02:30:59.553Z,949.49
2023-03-26T02:33:57.354Z,949.5
2023-03-26T02:36:58.379Z,949.61
2023-03-26T02:39:58.229Z,949.54
2023-03-26T02:42:58.829Z,949.34
2023-03-26T02:45:58.239Z,949.31
2023-03-26T02:48:58.308Z,949.28
2023-03-26T02:51:59.678Z,949.24
2023-03-26T02:54:58.162Z,949.1
2023-03-26T02:57:59.203Z,949.08
2023-03-26T03:00:59.172Z,949.1
2023-03-26T03:03:57.613Z,949.01
2023-03-26T03:06:58.760Z,949.02
2023-03-26T03:10:00.381Z,949.01
2023-03-26T03:12:58.893Z,949.06
2023-03-26T03:15:59.417Z,948.98
2023-03-26T03:18:59.461Z,948.98
2023-03-26T03:21:58.570Z,948.95
2023-03-26T03:24:58.651Z,948.89
2023-03-26T03:27:57.374Z,948.84
2023-03-26T03:30:58.438Z,948.85
2023-03-26T03:33:59.217Z,948.84
2023-03-26T03:36:58.199Z,948.79
2023-03-26T03:39:57.929Z,948.81
2023-03-26T03:42:59.279Z,948.85
2023-03-26T03:45:59.160Z,948.89
2023-03-26T03:48:58.262Z,948.86
2023-03-26T03:51:59.573Z,948.82
2023-03-26T03:54:58.302Z,948.78
2023-03-26T03:57:58.659Z,948.81
2023-03-26T04:01:00.149Z,948.69
2023-03-26T04:03:59.267Z,948.65
2023-03-26T04:06:59.216Z,948.65
2023-03-26T04:09:59.143Z,948.57
2023-03-26T04:12:59.041Z,948.54
2023-03-26T04:15:59.388Z,948.57
2023-03-26T04:18:58.586Z,948.51
2023-03-26T04:21:58.923Z,948.54
2023-03-26T04:24:57.793Z,948.41
2023-03-26T04:27:58.580Z,948.39
2023-03-26T04:30:59.403Z,948.35
2023-03-26T04:33:58.940Z,948.22
2023-03-26T04:36:58.166Z,948.14
2023-03-26T04:39:58.295Z,948.02
2023-03-26T04:42:59.006Z,948.07
2023-03-26T04:45:58.709Z,948.04
2023-03-26T04:48:57.884Z,948.04
2023-03-26T04:51:59.622Z,947.93
2023-03-26T04:54:59.837Z,947.89
2023-03-26T04:57:58.434Z,947.8
2023-03-26T05:00:59.312Z,947.79
2023-03-26T05:03:59.811Z,947.62
2023-03-26T05:06:58.729Z,947.5
2023-03-26T05:09:58.222Z,947.49
2023-03-26T05:12:57.731Z,947.4
2023-03-26T05:15:59.358Z,947.46
2023-03-26T05:18:58.287Z,947.23
2023-03-26T05:21:59.041Z,947.34
2023-03-26T05:24:59.623Z,947.27
2023-03-26T05:27:58.618Z,947.09
2023-03-26T05:30:59.565Z,947.16
2023-03-26T05:33:58.636Z,947.17
2023-03-26T05:36:59.485Z,947.12
2023-03-26T05:39:58.273Z,947.2
2023-03-26T05:42:58.688Z,947.16
2023-03-26T05:45:59.697Z,947.15
2023-03-26T05:48:58.702Z,947.2
2023-03-26T05:52:00.024Z,947.12
2023-03-26T05:54:59.582Z,947.16
2023-03-26T05:57:58.058Z,947.12
2023-03-26T06:00:59.646Z,947.12
2023-03-26T06:03:57.970Z,947.17
2023-03-26T06:06:59.102Z,947.05
2023-03-26T06:09:59.338Z,947.02
2023-03-26T06:12:59.164Z,947.02
2023-03-26T06:15:58.462Z,946.98
2023-03-26T06:18:59.977Z,946.71
2023-03-26T06:22:00.509Z,946.89
2023-03-26T06:24:59.151Z,946.84
2023-03-26T06:27:57.208Z,946.79
2023-03-26T06:30:59.332Z,946.77
2023-03-26T06:33:58.286Z,946.84
2023-03-26T06:36:59.374Z,946.75
2023-03-26T06:39:58.944Z,946.76
2023-03-26T06:43:08.301Z,946.64
2023-03-26T06:45:58.840Z,946.57
2023-03-26T06:48:58.663Z,946.51
2023-03-26T06:51:59.164Z,946.47
2023-03-26T06:54:58.227Z,946.48
2023-03-26T06:57:59.293Z,946.32
2023-03-26T07:00:59.723Z,946.39
2023-03-26T07:04:00.367Z,946.39
2023-03-26T07:06:59.413Z,946.36
2023-03-26T07:10:00.169Z,946.36
2023-03-26T07:12:58.818Z,946.28
2023-03-26T07:15:58.612Z,946.28
2023-03-26T07:18:57.810Z,946.31
2023-03-26T07:21:58.900Z,946.18
2023-03-26T07:24:58.489Z,946.07
2023-03-26T07:27:58.261Z,945.9
2023-03-26T07:30:59.262Z,945.94
2023-03-26T07:34:00.562Z,945.94
2023-03-26T07:36:58.825Z,945.78
2023-03-26T07:39:59.004Z,945.6
2023-03-26T07:42:59.449Z,945.61
2023-03-26T07:46:00.527Z,945.54
2023-03-26T07:48:59.779Z,945.53
2023-03-26T07:51:59.045Z,945.46
2023-03-26T07:54:59.590Z,945.36
2023-03-26T07:57:58.358Z,945.28
2023-03-26T08:00:59.971Z,945.28
2023-03-26T08:03:58.616Z,945.12
2023-03-26T08:06:58.343Z,945.11
2023-03-26T08:09:59.048Z,945.08
2023-03-26T08:13:00.474Z,945.0
2023-03-26T08:15:59.092Z,944.87
2023-03-26T08:18:58.160Z,944.92
2023-03-26T08:21:58.812Z,944.93
2023-03-26T08:24:58.365Z,944.91
2023-03-26T08:27:59.407Z,944.93
2023-03-26T08:30:59.320Z,944.73
2023-03-26T08:33:58.276Z,944.79
2023-03-26T08:36:58.919Z,944.87
2023-03-26T08:39:59.252Z,944.98
2023-03-26T08:42:59.802Z,944.95
2023-03-26T08:45:59.070Z,944.83
2023-03-26T08:49:00.109Z,944.85
2023-03-26T08:51:58.663Z,944.76
2023-03-26T08:54:58.819Z,944.86
2023-03-26T08:57:57.927Z,944.76
2023-03-26T09:00:59.196Z,944.74
2023-03-26T09:04:00.493Z,944.87
2023-03-26T09:06:59.300Z,944.79
2023-03-26T09:09:59.629Z,944.75
2023-03-26T09:12:59.831Z,944.66
2023-03-26T09:15:59.610Z,944.67
2023-03-26T09:18:59.141Z,944.57
2023-03-26T09:21:58.181Z,944.63
2023-03-26T09:24:59.246Z,944.6
2023-03-26T09:27:58.432Z,944.56
2023-03-26T09:30:59.406Z,944.43
2023-03-26T09:33:59.813Z,944.41
2023-03-26T09:36:58.809Z,944.29
2023-03-26T09:39:59.420Z,944.14
2023-03-26T09:42:57.808Z,944.08
2023-03-26T09:45:58.553Z,944.25
2023-03-26T09:48:58.632Z,944.18
2023-03-26T09:51:59.822Z,944.08
2023-03-26T09:54:58.915Z,944.2
2023-03-26T09:57:59.191Z,944.1
2023-03-26T10:00:58.747Z,944.11
2023-03-26T10:03:58.975Z,944.07
2023-03-26T10:06:58.626Z,944.15
2023-03-26T10:09:57.347Z,943.86
2023-03-26T10:13:11.665Z,943.84
2023-03-26T10:15:58.549Z,943.8
2023-03-26T10:18:59.000Z,943.84
2023-03-26T10:21:58.563Z,943.94
2023-03-26T10:24:58.626Z,943.98
2023-03-26T10:28:02.043Z,944.0
2023-03-26T10:30:59.189Z,944.01
2023-03-26T10:33:59.289Z,943.94
2023-03-26T10:36:58.656Z,943.9
2023-03-26T10:39:58.682Z,943.7
2023-03-26T10:42:58.343Z,943.83
2023-03-26T10:45:59.602Z,944.01
2023-03-26T10:48:58.296Z,943.8
2023-03-26T10:51:58.495Z,943.79
2023-03-26T10:54:59.286Z,943.67
2023-03-26T10:57:58.812Z,943.71
2023-03-26T11:00:59.541Z,943.75
2023-03-26T11:04:17.885Z,943.7
2023-03-26T11:06:58.984Z,943.69
2023-03-26T11:10:00.102Z,943.83
2023-03-26T11:12:58.233Z,943.64
2023-03-26T11:15:58.714Z,943.55
2023-03-26T11:18:59.000Z,943.52
2023-03-26T11:21:58.592Z,943.67
2023-03-26T11:24:59.216Z,943.59
2023-03-26T11:27:59.671Z,943.54
2023-03-26T11:30:57.949Z,943.64
2023-03-26T11:33:59.734Z,943.55
2023-03-26T11:37:00.286Z,943.56
2023-03-26T11:39:59.311Z,943.48
2023-03-26T11:42:58.379Z,943.67
2023-03-26T11:45:58.680Z,943.73
2023-03-26T11:48:58.222Z,943.69
2023-03-26T11:51:59.640Z,943.57
2023-03-26T11:54:59.305Z,943.57
2023-03-26T11:57:58.449Z,943.45
2023-03-26T12:00:59.378Z,943.44
2023-03-26T12:03:59.250Z,943.25
2023-03-26T12:06:58.153Z,943.25
2023-03-26T12:09:58.442Z,943.26
2023-03-26T12:12:59.468Z,943.25
2023-03-26T12:15:59.060Z,943.29
2023-03-26T12:18:58.276Z,943.25
2023-03-26T12:21:58.781Z,943.23
2023-03-26T12:24:59.330Z,943.22
2023-03-26T12:27:58.982Z,943.0
2023-03-26T12:30:59.904Z,943.0
2023-03-26T12:33:59.523Z,943.08
2023-03-26T12:36:58.477Z,943.15
2023-03-26T12:40:08.609Z,943.1
2023-03-26T12:44:46.499Z,942.97
2023-03-26T12:46:20.713Z,942.96
2023-03-26T12:48:57.520Z,942.87
2023-03-26T12:51:59.465Z,942.89
2023-03-26T12:54:59.053Z,942.81
2023-03-26T12:58:01.088Z,942.74
2023-03-26T13:01:00.264Z,942.8
2023-03-26T13:03:59.256Z,942.83
2023-03-26T13:07:01.563Z,942.83
2023-03-26T13:09:59.589Z,942.92
2023-03-26T13:12:58.781Z,943.1
2023-03-26T13:16:00.296Z,943.03
2023-03-26T13:18:57.591Z,943.05
2023-03-26T13:21:58.908Z,943.24
2023-03-26T13:24:59.982Z,943.35
2023-03-26T13:27:59.243Z,943.21
2023-03-26T13:30:59.138Z,943.34
2023-03-26T13:33:58.740Z,943.35
2023-03-26T13:37:00.939Z,943.05
2023-03-26T13:39:58.717Z,942.91
2023-03-26T13:42:58.210Z,942.99
2023-03-26T13:45:57.954Z,942.85
2023-03-26T13:48:58.793Z,942.78
2023-03-26T13:51:59.224Z,942.64
2023-03-26T13:54:58.156Z,942.54
2023-03-26T13:57:59.059Z,942.54
2023-03-26T14:00:59.516Z,942.53
2023-03-26T14:03:59.709Z,942.44
2023-03-26T14:06:59.435Z,942.33
2023-03-26T14:09:58.217Z,942.3
2023-03-26T14:12:58.809Z,942.23
2023-03-26T14:15:59.381Z,942.18
2023-03-26T14:18:57.982Z,942.17
2023-03-26T14:22:00.312Z,942.15
2023-03-26T14:24:58.712Z,942.13
2023-03-26T14:27:59.563Z,942.14
2023-03-26T14:31:00.039Z,942.05
2023-03-26T14:33:58.152Z,941.97
2023-03-26T14:36:58.271Z,941.97
2023-03-26T14:39:59.294Z,941.98
2023-03-26T14:42:58.992Z,941.93
2023-03-26T14:45:58.255Z,941.93
2023-03-26T14:48:58.678Z,941.86
2023-03-26T14:51:59.162Z,941.82
2023-03-26T14:54:58.757Z,941.79
2023-03-26T14:57:58.812Z,941.71
2023-03-26T15:01:03.895Z,941.8
2023-03-26T15:03:58.484Z,941.8
2023-03-26T15:06:58.977Z,941.82
2023-03-26T15:09:59.413Z,941.86
2023-03-26T15:12:57.401Z,941.76
2023-03-26T15:15:58.631Z,941.85
2023-03-26T15:18:58.723Z,941.86
2023-03-26T15:21:59.100Z,941.84
2023-03-26T15:24:59.093Z,941.81
2023-03-26T15:27:58.181Z,941.77
2023-03-26T15:30:59.214Z,941.86
2023-03-26T15:33:59.493Z,941.9
2023-03-26T15:36:59.317Z,941.93
2023-03-26T15:40:00.559Z,941.99
2023-03-26T15:42:58.556Z,941.91
2023-03-26T15:45:59.768Z,941.97
2023-03-26T15:48:59.273Z,942.06
2023-03-26T15:51:59.902Z,942.0
2023-03-26T15:54:59.675Z,942.05
2023-03-26T15:57:58.934Z,942.53
2023-03-26T16:01:00.369Z,942.76
2023-03-26T16:03:58.438Z,942.86
2023-03-26T16:06:57.939Z,942.96
2023-03-26T16:10:03.210Z,942.93
2023-03-26T16:12:58.657Z,942.85
2023-03-26T16:15:59.575Z,942.81
2023-03-26T16:18:59.309Z,942.93
2023-03-26T16:21:59.137Z,942.77
2023-03-26T16:24:58.653Z,942.76
2023-03-26T16:27:59.509Z,942.81
2023-03-26T16:30:58.531Z,942.75
2023-03-26T16:33:59.328Z,942.78
2023-03-26T16:36:59.804Z,942.71
2023-03-26T16:39:59.554Z,942.69
2023-03-26T16:42:58.121Z,942.62
2023-03-26T16:45:59.026Z,942.62
2023-03-26T16:48:57.657Z,942.5
2023-03-26T16:51:58.680Z,942.6
2023-03-26T16:54:58.574Z,942.59
2023-03-26T16:57:59.678Z,942.53
2023-03-26T17:01:00.021Z,942.65
2023-03-26T17:03:58.770Z,942.59
2023-03-26T17:06:58.298Z,942.8
2023-03-26T17:09:59.062Z,942.75
2023-03-26T17:12:59.574Z,942.84
2023-03-26T17:15:58.714Z,942.82
2023-03-26T17:18:59.338Z,942.93
2023-03-26T17:21:58.975Z,943.01
2023-03-26T17:24:59.809Z,942.93
2023-03-26T17:27:58.451Z,942.99
2023-03-26T17:30:58.353Z,943.07
2023-03-26T17:33:58.911Z,943.06
2023-03-26T17:36:59.425Z,943.15
2023-03-26T17:39:58.074Z,943.16
2023-03-26T17:42:58.845Z,943.22
2023-03-26T17:46:02.827Z,943.16
2023-03-26T17:48:59.075Z,943.29
2023-03-26T17:51:58.475Z,943.16
2023-03-26T17:54:57.873Z,943.19
2023-03-26T17:57:58.447Z,943.12
2023-03-26T18:00:58.554Z,943.22
2023-03-26T18:03:59.175Z,943.23
2023-03-26T18:06:57.586Z,943.16
2023-03-26T18:09:59.503Z,943.3
2023-03-26T18:12:58.734Z,943.52
2023-03-26T18:15:59.896Z,943.35
2023-03-26T18:18:59.285Z,943.39
2023-03-26T18:21:59.287Z,943.43
2023-03-26T18:24:59.850Z,943.37
2023-03-26T18:27:58.037Z,943.35
2023-03-26T18:30:58.879Z,943.33
2023-03-26T18:33:59.942Z,943.33
2023-03-26T18:36:59.197Z,943.34
2023-03-26T18:39:59.551Z,943.31
2023-03-26T18:42:58.560Z,943.36
2023-03-26T18:45:58.991Z,943.36
2023-03-26T18:48:59.507Z,943.32
2023-03-26T18:51:58.005Z,943.19
2023-03-26T18:54:58.967Z,943.24
2023-03-26T18:57:58.463Z,943.27
2023-03-26T19:01:27.408Z,943.3
2023-03-26T19:03:58.207Z,943.35
2023-03-26T19:06:59.097Z,943.37
2023-03-26T19:09:59.395Z,943.44
2023-03-26T19:12:58.129Z,943.4
2023-03-26T19:15:59.141Z,943.41
2023-03-26T19:18:58.695Z,943.33
2023-03-26T19:21:59.661Z,943.3
2023-03-26T19:24:59.387Z,943.34
2023-03-26T19:27:58.454Z,943.12
2023-03-26T19:30:59.409Z,943.16
2023-03-26T19:33:59.318Z,943.1
2023-03-26T19:36:59.847Z,943.07
2023-03-26T19:39:58.654Z,943.05
2023-03-26T19:42:58.438Z,943.1
2023-03-26T19:46:01.329Z,943.03
2023-03-26T19:48:58.245Z,943.0
2023-03-26T19:51:58.997Z,942.91
2023-03-26T19:54:59.173Z,942.97
2023-03-26T19:57:59.553Z,942.99
2023-03-26T20:00:59.808Z,942.97
2023-03-26T20:03:59.089Z,942.91
2023-03-26T20:06:58.353Z,942.87
2023-03-26T20:09:57.935Z,942.97
2023-03-26T20:12:58.807Z,942.77
2023-03-26T20:16:05.852Z,942.89
2023-03-26T20:18:58.852Z,942.99
2023-03-26T20:21:59.350Z,942.89
2023-03-26T20:24:58.453Z,943.03
2023-03-26T20:27:58.931Z,943.22
2023-03-26T20:30:59.745Z,943.08
2023-03-26T20:33:58.089Z,943.22
2023-03-26T20:37:01.238Z,943.16
2023-03-26T20:39:59.435Z,943.25
2023-03-26T20:42:59.876Z,943.43
2023-03-26T20:45:59.823Z,943.29
2023-03-26T20:48:59.198Z,943.42
2023-03-26T20:51:59.213Z,943.39
2023-03-26T20:54:59.912Z,943.44
2023-03-26T20:57:58.112Z,943.39
2023-03-26T21:00:58.749Z,943.34
2023-03-26T21:03:58.313Z,943.32
2023-03-26T21:09:58.683Z,943.15
2023-03-26T21:12:58.908Z,943.25
2023-03-26T21:16:01.016Z,943.17
2023-03-26T21:18:57.976Z,943.18
2023-03-26T21:21:59.153Z,943.25
2023-03-26T21:24:58.479Z,943.23
2023-03-26T21:27:59.215Z,943.18
2023-03-26T21:30:59.655Z,943.16
2023-03-26T21:33:58.846Z,943.11
2023-03-26T21:36:58.096Z,943.14
2023-03-26T21:39:59.357Z,943.18
2023-03-26T21:42:58.959Z,943.11
2023-03-26T21:45:58.200Z,943.08
2023-03-26T21:48:58.534Z,943.3
2023-03-26T21:51:58.900Z,943.27
2023-03-26T21:54:57.904Z,943.18
2023-03-26T21:57:58.416Z,943.17
2023-03-26T22:00:59.401Z,943.32
2023-03-26T22:03:59.793Z,943.33
2023-03-26T22:06:58.045Z,943.33
2023-03-26T22:09:58.632Z,943.27
2023-03-26T22:12:58.654Z,943.25
2023-03-26T22:15:59.053Z,943.26
2023-03-26T22:18:58.374Z,943.29
2023-03-26T22:21:58.985Z,943.29
2023-03-26T22:24:57.976Z,943.29
2023-03-26T22:27:59.292Z,943.32
2023-03-26T22:30:59.440Z,943.36
2023-03-26T22:33:59.200Z,943.27
2023-03-26T22:36:59.359Z,943.4
2023-03-26T22:39:58.703Z,943.48
2023-03-26T22:42:59.129Z,943.49
2023-03-26T22:45:59.272Z,943.48
2023-03-26T22:48:59.453Z,943.53
2023-03-26T22:51:58.532Z,943.45
2023-03-26T22:54:59.265Z,943.55
2023-03-26T22:57:59.704Z,943.55
2023-03-26T23:01:00.207Z,943.55
2023-03-26T23:03:59.169Z,943.73
2023-03-26T23:06:59.445Z,943.65
2023-03-26T23:09:58.582Z,943.68
2023-03-26T23:12:59.187Z,943.65
2023-03-26T23:15:58.980Z,943.67
2023-03-26T23:18:58.035Z,943.64
2023-03-26T23:21:58.504Z,943.6
2023-03-26T23:24:59.228Z,943.72
2023-03-26T23:27:58.008Z,943.73
2023-03-26T23:30:58.890Z,943.73
2023-03-26T23:33:59.690Z,943.66
2023-03-26T23:36:59.344Z,943.62
2023-03-26T23:39:58.828Z,943.69
2023-03-26T23:42:58.932Z,943.72
2023-03-26T23:45:57.620Z,943.69
2023-03-26T23:48:58.225Z,943.68
2023-03-26T23:51:59.296Z,943.76
2023-03-26T23:54:59.162Z,943.81
2023-03-26T23:57:59.304Z,943.81
